createdAt,value
2022-12-08T00:00:21.830Z,21.63
2022-12-08T00:02:49.453Z,21.07
2022-12-08T00:05:34.512Z,22.47
2022-12-08T00:08:19.702Z,22.70
2022-12-08T00:10:49.405Z,21.87
2022-12-08T00:13:17.499Z,21.17
2022-12-08T00:15:46.258Z,23.70
2022-12-08T00:18:13.754Z,21.50
2022-12-08T00:20:41.174Z,21.67
2022-12-08T00:23:08.593Z,23.27
2022-12-08T00:25:36.544Z,21.17
2022-12-08T00:28:04.142Z,21.07
2022-12-08T00:30:31.534Z,22.93
2022-12-08T00:33:00.318Z,21.63
2022-12-08T00:35:27.710Z,22.80
2022-12-08T00:38:00.610Z,21.50
2022-12-08T00:40:28.646Z,21.40
2022-12-08T00:42:56.788Z,22.33
2022-12-08T00:45:24.419Z,22.27
2022-12-08T00:47:51.835Z,22.20
2022-12-08T00:50:20.618Z,22.40
2022-12-08T00:52:48.031Z,19.97
2022-12-08T00:55:15.597Z,23.10
2022-12-08T00:57:43.009Z,23.67
2022-12-08T01:00:11.308Z,22.33
2022-12-08T01:02:38.711Z,21.97
2022-12-08T01:05:06.901Z,22.03
2022-12-08T01:07:35.689Z,21.93
2022-12-08T01:10:03.836Z,22.77
2022-12-08T01:12:31.478Z,23.33
2022-12-08T01:15:02.235Z,22.83
2022-12-08T01:17:30.294Z,23.87
2022-12-08T01:19:58.733Z,23.37
2022-12-08T01:22:26.708Z,24.40
2022-12-08T01:24:55.451Z,24.77
2022-12-08T01:27:22.846Z,25.17
2022-12-08T01:29:50.247Z,22.00
2022-12-08T01:32:17.680Z,26.93
2022-12-08T01:34:45.091Z,25.33
2022-12-08T01:37:13.215Z,27.10
2022-12-08T01:39:41.429Z,28.67
2022-12-08T01:42:19.891Z,25.73
2022-12-08T01:44:59.056Z,28.60
2022-12-08T01:47:31.046Z,26.30
2022-12-08T01:49:58.751Z,28.33
2022-12-08T01:52:28.455Z,28.63
2022-12-08T01:54:59.661Z,28.87
2022-12-08T01:57:31.651Z,27.17
2022-12-08T02:00:03.047Z,26.83
2022-12-08T02:02:37.978Z,26.40
2022-12-08T02:05:07.252Z,28.83
2022-12-08T02:07:36.463Z,27.60
2022-12-08T02:10:04.434Z,26.17
2022-12-08T02:12:33.731Z,27.50
2022-12-08T02:15:05.000Z,26.77
2022-12-08T02:17:45.043Z,28.03
2022-12-08T02:20:25.730Z,29.10
2022-12-08T02:22:58.683Z,27.67
2022-12-08T02:25:31.382Z,25.53
2022-12-08T02:28:07.087Z,26.03
2022-12-08T02:30:39.562Z,25.70
2022-12-08T02:33:54.668Z,25.63
2022-12-08T02:36:25.825Z,27.73
2022-12-08T02:39:00.015Z,24.00
2022-12-08T02:41:33.316Z,25.90
2022-12-08T02:44:06.498Z,26.70
2022-12-08T02:46:36.988Z,26.17
2022-12-08T02:49:05.295Z,27.53
2022-12-08T02:51:34.099Z,27.27
2022-12-08T02:54:02.016Z,26.17
2022-12-08T02:56:46.736Z,24.77
2022-12-08T02:59:24.663Z,27.37
2022-12-08T03:02:06.923Z,27.60
2022-12-08T03:04:39.924Z,27.90
2022-12-08T03:07:11.775Z,28.50
2022-12-08T03:09:42.643Z,29.63
2022-12-08T03:12:14.876Z,30.00
2022-12-08T03:14:46.659Z,29.73
2022-12-08T03:17:14.849Z,29.50
2022-12-08T03:19:43.282Z,27.43
2022-12-08T03:22:12.805Z,27.37
2022-12-08T03:24:42.134Z,30.63
2022-12-08T03:27:11.014Z,29.67
2022-12-08T03:29:38.444Z,28.87
2022-12-08T03:32:10.083Z,31.57
2022-12-08T03:34:38.243Z,31.57
2022-12-08T03:37:05.884Z,30.23
2022-12-08T03:39:34.631Z,32.10
2022-12-08T03:42:02.106Z,32.70
2022-12-08T03:44:29.626Z,32.10
2022-12-08T03:46:57.063Z,31.33
2022-12-08T03:49:24.477Z,29.97
2022-12-08T03:51:52.182Z,29.87
2022-12-08T03:54:19.639Z,30.00
2022-12-08T03:56:48.504Z,30.37
2022-12-08T03:59:16.044Z,32.27
2022-12-08T04:01:43.619Z,25.93
2022-12-08T04:04:11.551Z,32.60
2022-12-08T04:06:38.980Z,32.53
2022-12-08T04:09:06.396Z,33.53
2022-12-08T04:11:33.844Z,32.13
2022-12-08T04:14:02.655Z,31.43
2022-12-08T04:16:30.178Z,32.23
2022-12-08T04:18:57.663Z,33.10
2022-12-08T04:21:25.085Z,32.83
2022-12-08T04:23:57.556Z,31.67
2022-12-08T04:26:28.149Z,32.00
2022-12-08T04:28:55.721Z,31.23
2022-12-08T04:31:24.521Z,30.60
2022-12-08T04:33:52.009Z,30.53
2022-12-08T04:36:19.521Z,29.63
2022-12-08T04:38:46.922Z,30.17
2022-12-08T04:41:14.322Z,31.00
2022-12-08T04:43:44.194Z,30.60
2022-12-08T04:46:12.412Z,29.00
2022-12-08T04:48:42.372Z,31.47
2022-12-08T04:51:16.004Z,30.67
2022-12-08T04:53:46.626Z,29.93
2022-12-08T04:56:14.700Z,30.30
2022-12-08T04:58:42.153Z,30.90
2022-12-08T05:01:09.775Z,32.17
2022-12-08T05:03:37.258Z,30.63
2022-12-08T05:06:07.111Z,30.60
2022-12-08T05:08:35.681Z,27.70
2022-12-08T05:11:04.220Z,29.63
2022-12-08T05:13:31.731Z,29.60
2022-12-08T05:16:04.253Z,28.93
2022-12-08T05:18:31.829Z,28.27
2022-12-08T05:20:59.654Z,26.10
2022-12-08T05:23:28.557Z,24.00
2022-12-08T05:25:56.161Z,28.70
2022-12-08T05:31:11.329Z,25.13
2022-12-08T05:33:38.878Z,26.23
2022-12-08T05:36:06.739Z,28.37
2022-12-08T05:38:35.514Z,27.13
2022-12-08T05:41:02.939Z,28.83
2022-12-08T05:43:30.395Z,26.60
2022-12-08T05:45:57.880Z,29.03
2022-12-08T05:48:25.681Z,23.13
2022-12-08T05:50:53.158Z,23.20
2022-12-08T05:53:21.409Z,21.83
2022-12-08T05:55:50.163Z,21.40
2022-12-08T05:58:19.895Z,21.43
2022-12-08T06:00:47.868Z,23.77
2022-12-08T06:03:17.065Z,25.07
2022-12-08T06:05:46.304Z,23.80
2022-12-08T06:08:14.412Z,25.13
2022-12-08T06:10:41.991Z,25.30
2022-12-08T06:13:10.832Z,26.70
2022-12-08T06:15:39.482Z,27.30
2022-12-08T06:18:07.940Z,29.43
2022-12-08T06:20:35.717Z,29.17
2022-12-08T06:23:03.361Z,28.20
2022-12-08T06:25:30.830Z,31.30
2022-12-08T06:27:58.253Z,30.23
2022-12-08T06:30:28.306Z,29.00
2022-12-08T06:32:55.720Z,30.93
2022-12-08T06:35:23.119Z,29.70
2022-12-08T06:37:51.633Z,32.10
2022-12-08T06:40:19.098Z,30.47
2022-12-08T06:42:47.064Z,31.00
2022-12-08T06:45:15.901Z,29.33
2022-12-08T06:47:44.840Z,30.27
2022-12-08T06:50:14.542Z,29.57
2022-12-08T06:52:50.821Z,26.70
2022-12-08T06:55:42.997Z,27.03
2022-12-08T06:58:08.712Z,28.53
2022-12-08T07:00:36.131Z,28.50
2022-12-08T07:03:04.919Z,26.33
2022-12-08T07:05:32.381Z,26.23
2022-12-08T07:08:00.177Z,26.53
2022-12-08T07:10:27.716Z,25.27
2022-12-08T07:12:55.169Z,26.97
2022-12-08T07:15:22.592Z,27.33
2022-12-08T07:17:53.582Z,26.37
2022-12-08T07:20:25.129Z,26.47
2022-12-08T07:22:53.611Z,26.00
2022-12-08T07:25:21.467Z,27.73
2022-12-08T07:27:50.347Z,27.13
2022-12-08T07:30:18.420Z,23.47
2022-12-08T07:32:46.070Z,26.43
2022-12-08T07:35:13.606Z,27.27
2022-12-08T07:37:42.435Z,27.50
2022-12-08T07:40:10.911Z,24.23
2022-12-08T07:42:38.362Z,26.23
2022-12-08T07:45:06.935Z,23.40
2022-12-08T07:47:34.338Z,23.50
2022-12-08T07:50:01.924Z,23.37
2022-12-08T07:52:31.520Z,25.27
2022-12-08T07:55:01.263Z,20.87
2022-12-08T07:57:28.804Z,22.43
2022-12-08T07:59:56.224Z,22.93
2022-12-08T08:02:25.673Z,22.83
2022-12-08T08:04:55.065Z,21.73
2022-12-08T08:07:22.532Z,23.93
2022-12-08T08:09:49.944Z,21.83
2022-12-08T08:12:33.926Z,22.43
2022-12-08T08:15:02.171Z,24.00
2022-12-08T08:17:30.298Z,21.27
2022-12-08T08:19:58.174Z,21.53
2022-12-08T08:22:26.079Z,21.70
2022-12-08T08:24:53.744Z,22.33
2022-12-08T08:27:22.727Z,22.50
2022-12-08T08:29:50.154Z,19.43
2022-12-08T08:32:17.593Z,20.10
2022-12-08T08:34:45.072Z,18.27
2022-12-08T08:37:12.569Z,18.70
2022-12-08T08:39:40.054Z,18.77
2022-12-08T08:42:07.502Z,16.27
2022-12-08T08:44:37.535Z,19.27
2022-12-08T08:47:04.970Z,18.70
2022-12-08T08:49:32.577Z,18.63
2022-12-08T08:51:59.986Z,18.30
2022-12-08T08:54:29.534Z,19.57
2022-12-08T08:56:58.159Z,20.27
2022-12-08T08:59:25.735Z,18.03
2022-12-08T09:01:55.026Z,18.20
2022-12-08T09:04:22.832Z,20.03
2022-12-08T09:06:50.447Z,19.53
2022-12-08T09:09:17.938Z,19.07
2022-12-08T09:11:45.507Z,20.17
2022-12-08T09:14:14.491Z,19.77
2022-12-08T09:16:42.681Z,19.07
2022-12-08T09:19:13.504Z,19.87
2022-12-08T09:21:41.356Z,17.10
2022-12-08T09:24:10.455Z,18.70
2022-12-08T09:26:37.903Z,18.57
2022-12-08T09:29:05.391Z,19.93
2022-12-08T09:31:32.971Z,20.73
2022-12-08T09:34:00.595Z,19.33
2022-12-08T09:36:29.346Z,20.57
2022-12-08T09:38:56.798Z,18.53
2022-12-08T09:41:35.940Z,19.97
2022-12-08T09:44:25.336Z,19.63
2022-12-08T09:46:53.943Z,19.20
2022-12-08T09:49:24.994Z,17.53
2022-12-08T09:51:54.047Z,19.30
2022-12-08T09:54:24.235Z,19.37
2022-12-08T09:56:52.598Z,19.77
2022-12-08T09:59:23.990Z,18.07
2022-12-08T10:01:52.596Z,19.43
2022-12-08T10:04:24.141Z,20.30
2022-12-08T10:07:02.284Z,19.20
2022-12-08T10:09:36.619Z,19.53
2022-12-08T10:12:11.977Z,18.27
2022-12-08T10:14:43.310Z,19.77
2022-12-08T10:17:19.085Z,19.80
2022-12-08T10:19:47.844Z,19.27
2022-12-08T10:22:21.271Z,18.77
2022-12-08T10:24:55.093Z,19.03
2022-12-08T10:27:23.109Z,19.30
2022-12-08T10:29:50.506Z,19.13
2022-12-08T10:32:19.920Z,18.80
2022-12-08T10:35:00.315Z,19.23
2022-12-08T10:37:30.585Z,19.57
2022-12-08T10:40:04.146Z,18.93
2022-12-08T10:42:36.661Z,19.33
2022-12-08T10:45:16.918Z,19.23
2022-12-08T10:47:56.651Z,20.47
2022-12-08T10:50:37.921Z,19.57
2022-12-08T10:53:14.545Z,21.07
2022-12-08T10:55:44.510Z,21.93
2022-12-08T10:58:35.499Z,21.87
2022-12-08T11:01:06.437Z,19.27
2022-12-08T11:03:36.035Z,21.57
2022-12-08T11:06:13.400Z,21.20
2022-12-08T11:08:51.784Z,20.53
2022-12-08T11:11:24.326Z,19.97
2022-12-08T11:13:55.080Z,19.73
2022-12-08T11:16:23.867Z,18.97
2022-12-08T11:18:58.313Z,21.07
2022-12-08T11:21:34.535Z,19.70
2022-12-08T11:24:11.719Z,18.90
2022-12-08T11:26:39.298Z,20.20
2022-12-08T11:29:07.080Z,19.77
2022-12-08T11:31:36.373Z,19.07
2022-12-08T11:34:04.484Z,19.83
2022-12-08T11:36:34.178Z,19.50
2022-12-08T11:39:05.564Z,19.67
2022-12-08T11:41:35.519Z,19.80
2022-12-08T11:44:06.686Z,20.00
2022-12-08T11:46:38.018Z,19.20
2022-12-08T11:49:09.744Z,20.20
2022-12-08T11:51:41.200Z,19.30
2022-12-08T11:54:19.196Z,19.03
2022-12-08T11:56:48.991Z,20.23
2022-12-08T11:59:20.896Z,20.30
2022-12-08T12:01:48.437Z,19.50
2022-12-08T12:04:21.250Z,21.37
2022-12-08T12:07:12.272Z,20.33
2022-12-08T12:09:52.203Z,20.50
2022-12-08T12:12:28.263Z,20.80
2022-12-08T12:15:34.810Z,20.60
2022-12-08T12:18:04.268Z,20.60
2022-12-08T12:20:34.055Z,19.43
2022-12-08T12:23:05.824Z,19.90
2022-12-08T12:25:35.838Z,19.73
2022-12-08T12:28:05.079Z,20.77
2022-12-08T12:30:50.005Z,20.37
2022-12-08T12:33:18.123Z,20.23
2022-12-08T12:35:47.819Z,20.47
2022-12-08T12:38:39.316Z,20.47
2022-12-08T12:41:09.346Z,21.40
2022-12-08T12:43:38.248Z,21.30
2022-12-08T12:46:43.963Z,20.93
2022-12-08T12:49:51.479Z,22.30
2022-12-08T12:52:53.274Z,20.63
2022-12-08T12:55:42.947Z,20.27
2022-12-08T12:58:24.299Z,20.37
2022-12-08T13:01:30.591Z,20.00
2022-12-08T13:04:07.310Z,20.90
2022-12-08T13:06:38.212Z,20.93
2022-12-08T13:09:07.099Z,20.90
2022-12-08T13:11:48.138Z,19.57
2022-12-08T13:14:28.576Z,19.27
2022-12-08T13:16:57.165Z,19.33
2022-12-08T13:19:26.938Z,19.97
2022-12-08T13:21:54.460Z,19.90
2022-12-08T13:24:34.317Z,19.13
2022-12-08T13:27:34.837Z,19.50
2022-12-08T13:30:42.685Z,19.17
2022-12-08T13:33:18.155Z,19.13
2022-12-08T13:35:53.759Z,19.57
2022-12-08T13:38:23.581Z,19.97
2022-12-08T13:40:51.588Z,19.60
2022-12-08T13:43:29.770Z,18.87
2022-12-08T13:55:19.713Z,19.50
2022-12-08T13:57:28.608Z,18.93
2022-12-08T14:00:01.325Z,19.90
2022-12-08T14:02:34.261Z,19.43
2022-12-08T14:05:19.121Z,19.90
2022-12-08T14:07:50.773Z,19.33
2022-12-08T14:10:21.579Z,19.37
2022-12-08T14:12:54.614Z,19.33
2022-12-08T14:15:22.376Z,19.00
2022-12-08T14:17:52.788Z,18.80
2022-12-08T14:20:24.714Z,18.40
2022-12-08T14:22:53.988Z,19.07
2022-12-08T14:25:23.240Z,19.53
2022-12-08T14:27:50.804Z,19.33
2022-12-08T14:30:21.049Z,19.20
2022-12-08T14:32:50.321Z,19.27
2022-12-08T14:35:23.530Z,18.80
2022-12-08T14:37:54.139Z,19.03
2022-12-08T14:40:24.638Z,19.03
2022-12-08T14:42:55.260Z,18.47
2022-12-08T14:45:22.839Z,18.60
2022-12-08T14:47:51.048Z,18.53
2022-12-08T14:50:38.022Z,18.10
2022-12-08T14:53:14.318Z,18.07
2022-12-08T14:55:41.859Z,18.33
2022-12-08T14:58:18.191Z,17.97
2022-12-08T15:00:47.252Z,17.13
2022-12-08T15:03:16.663Z,17.33
2022-12-08T15:05:44.287Z,18.13
2022-12-08T15:08:13.708Z,18.23
2022-12-08T15:10:47.923Z,18.70
2022-12-08T15:13:23.391Z,18.40
2022-12-08T15:15:52.618Z,17.43
2022-12-08T15:18:22.138Z,17.73
2022-12-08T15:20:51.427Z,17.77
2022-12-08T15:23:23.473Z,17.83
2022-12-08T15:25:51.251Z,17.30
2022-12-08T15:28:22.009Z,17.10
2022-12-08T15:30:50.531Z,16.83
2022-12-08T15:33:18.042Z,18.27
2022-12-08T15:35:45.691Z,17.67
2022-12-08T15:38:20.484Z,18.33
2022-12-08T15:40:49.405Z,19.03
2022-12-08T15:43:17.024Z,20.00
2022-12-08T15:45:57.522Z,20.03
2022-12-08T15:48:27.903Z,19.67
2022-12-08T15:50:55.991Z,20.37
2022-12-08T15:53:23.481Z,21.50
2022-12-08T15:56:25.638Z,20.53
2022-12-08T15:58:57.038Z,20.27
2022-12-08T16:01:25.497Z,20.37
2022-12-08T16:04:36.885Z,20.73
2022-12-08T16:09:32.045Z,20.17
2022-12-08T16:12:18.525Z,20.43
2022-12-08T16:17:34.279Z,20.83
2022-12-08T16:20:02.249Z,20.90
2022-12-08T16:25:20.623Z,21.63
2022-12-08T16:28:03.196Z,21.70
2022-12-08T16:30:36.208Z,19.97
2022-12-08T16:33:03.609Z,20.53
2022-12-08T16:35:31.154Z,20.83
2022-12-08T16:37:58.950Z,20.57
2022-12-08T16:40:26.454Z,20.80
2022-12-08T16:42:54.260Z,20.67
2022-12-08T16:45:23.685Z,21.13
2022-12-08T16:47:52.788Z,20.73
2022-12-08T16:50:22.737Z,20.63
2022-12-08T16:52:51.147Z,21.57
2022-12-08T16:55:20.096Z,20.30
2022-12-08T16:57:47.885Z,21.93
2022-12-08T17:00:18.676Z,22.53
2022-12-08T17:02:46.425Z,22.67
2022-12-08T17:05:15.066Z,23.10
2022-12-08T17:07:43.170Z,22.73
2022-12-08T17:10:12.824Z,22.50
2022-12-08T17:12:40.351Z,22.50
2022-12-08T17:15:09.495Z,23.73
2022-12-08T17:17:39.332Z,23.70
2022-12-08T17:20:09.480Z,23.67
2022-12-08T17:22:37.494Z,25.63
2022-12-08T17:25:06.228Z,25.97
2022-12-08T17:27:33.900Z,26.33
2022-12-08T17:30:01.395Z,26.40
2022-12-08T17:32:28.866Z,25.67
2022-12-08T17:34:57.641Z,26.93
2022-12-08T17:37:25.059Z,28.47
2022-12-08T17:39:52.623Z,26.97
2022-12-08T17:42:20.321Z,26.27
2022-12-08T17:44:47.823Z,27.67
2022-12-08T17:47:15.242Z,27.83
2022-12-08T17:49:42.659Z,27.13
2022-12-08T17:52:12.455Z,27.40
2022-12-08T17:54:39.907Z,26.27
2022-12-08T17:57:07.360Z,27.77
2022-12-08T17:59:34.798Z,26.87
2022-12-08T18:02:02.394Z,26.47
2022-12-08T18:04:29.895Z,26.93
2022-12-08T18:06:59.232Z,28.77
2022-12-08T18:09:28.070Z,28.13
2022-12-08T18:11:55.533Z,27.90
2022-12-08T18:14:22.989Z,29.03
2022-12-08T18:16:51.467Z,28.20
2022-12-08T18:19:19.043Z,29.43
2022-12-08T18:21:46.466Z,29.90
2022-12-08T18:24:17.693Z,30.00
2022-12-08T18:26:46.685Z,30.00
2022-12-08T18:29:14.182Z,29.23
2022-12-08T18:31:41.599Z,29.53
2022-12-08T18:34:09.102Z,29.90
2022-12-08T18:36:36.716Z,31.53
2022-12-08T18:39:10.260Z,31.57
2022-12-08T18:41:38.295Z,30.60
2022-12-08T18:44:07.024Z,30.07
2022-12-08T18:46:34.511Z,32.40
2022-12-08T18:49:01.998Z,32.30
2022-12-08T18:51:29.463Z,31.70
2022-12-08T18:53:56.905Z,31.87
2022-12-08T18:56:26.598Z,32.50
2022-12-08T18:58:58.488Z,31.47
2022-12-08T19:01:30.822Z,32.97
2022-12-08T19:04:26.812Z,32.87
2022-12-08T19:06:46.914Z,33.17
2022-12-08T19:09:15.133Z,32.00
2022-12-08T19:11:42.891Z,32.10
2022-12-08T19:14:10.842Z,33.37
2022-12-08T19:16:39.683Z,32.77
2022-12-08T19:19:07.180Z,32.93
2022-12-08T19:21:34.694Z,31.73
2022-12-08T19:24:02.692Z,32.33
2022-12-08T19:26:30.182Z,29.73
2022-12-08T19:28:58.425Z,30.47
2022-12-08T19:31:25.903Z,32.27
2022-12-08T19:33:54.810Z,31.90
2022-12-08T19:36:23.635Z,31.07
2022-12-08T19:39:08.695Z,32.33
2022-12-08T19:41:54.616Z,30.20
2022-12-08T19:44:41.986Z,29.77
2022-12-08T19:47:09.944Z,30.63
2022-12-08T19:49:39.195Z,30.80
2022-12-08T19:52:06.683Z,29.90
2022-12-08T19:54:34.146Z,31.33
2022-12-08T19:57:01.826Z,28.83
2022-12-08T19:59:30.058Z,32.53
2022-12-08T20:01:57.793Z,32.50
2022-12-08T20:04:26.696Z,32.07
2022-12-08T20:06:56.604Z,31.97
2022-12-08T20:09:24.727Z,30.23
2022-12-08T20:11:54.517Z,31.47
2022-12-08T20:14:22.667Z,31.90
2022-12-08T20:16:51.783Z,30.80
2022-12-08T20:19:19.484Z,30.90
2022-12-08T20:21:46.960Z,30.53
2022-12-08T20:24:16.987Z,32.50
2022-12-08T20:26:44.458Z,31.43
2022-12-08T20:29:12.272Z,29.87
2022-12-08T20:31:39.877Z,31.00
2022-12-08T20:34:07.340Z,32.23
2022-12-08T20:36:34.788Z,34.93
2022-12-08T20:39:02.192Z,35.13
2022-12-08T20:41:33.769Z,35.37
2022-12-08T20:44:06.292Z,34.67
2022-12-08T20:46:34.376Z,35.00
2022-12-08T20:49:03.844Z,33.00
2022-12-08T20:51:32.517Z,32.40
2022-12-08T20:54:00.881Z,37.30
2022-12-08T20:56:31.064Z,35.80
2022-12-08T20:59:00.118Z,36.53
2022-12-08T21:01:27.837Z,34.30
2022-12-08T21:03:56.617Z,33.33
2022-12-08T21:06:26.704Z,33.10
2022-12-08T21:08:54.470Z,32.60
2022-12-08T21:11:21.999Z,32.53
2022-12-08T21:13:49.462Z,32.07
2022-12-08T21:16:18.387Z,31.57
2022-12-08T21:18:45.868Z,31.30
2022-12-08T21:21:15.040Z,31.23
2022-12-08T21:23:42.911Z,30.60
2022-12-08T21:26:11.770Z,30.63
2022-12-08T21:28:39.427Z,33.00
2022-12-08T21:31:08.597Z,31.87
2022-12-08T21:33:37.556Z,32.07
2022-12-08T21:36:08.828Z,32.03
2022-12-08T21:38:36.885Z,31.87
2022-12-08T21:41:05.634Z,30.60
2022-12-08T21:43:33.552Z,31.20
2022-12-08T21:46:01.125Z,30.70
2022-12-08T21:48:28.771Z,31.40
2022-12-08T21:50:58.097Z,31.27
2022-12-08T21:53:26.474Z,30.43
2022-12-08T21:55:54.057Z,32.33
2022-12-08T21:58:21.573Z,29.83
2022-12-08T22:00:49.293Z,29.73
2022-12-08T22:03:17.143Z,31.57
2022-12-08T22:05:44.760Z,30.27
2022-12-08T22:08:14.808Z,30.67
2022-12-08T22:10:47.692Z,32.00
2022-12-08T22:13:15.192Z,31.27
2022-12-08T22:15:42.932Z,34.77
2022-12-08T22:18:11.318Z,32.13
2022-12-08T22:20:43.897Z,33.50
2022-12-08T22:23:13.340Z,34.40
2022-12-08T22:25:40.957Z,33.00
2022-12-08T22:28:08.480Z,33.23
2022-12-08T22:30:39.246Z,32.50
2022-12-08T22:33:07.207Z,31.17
2022-12-08T22:35:34.826Z,32.33
2022-12-08T22:38:02.324Z,32.23
2022-12-08T22:40:31.083Z,32.40
2022-12-08T22:42:58.772Z,30.93
2022-12-08T22:45:27.098Z,32.00
2022-12-08T22:47:54.654Z,31.63
2022-12-08T22:50:22.375Z,32.80
2022-12-08T22:52:49.939Z,31.83
2022-12-08T22:55:17.483Z,31.93
2022-12-08T22:57:46.451Z,30.77
2022-12-08T23:00:14.651Z,29.77
2022-12-08T23:02:42.251Z,27.97
2022-12-08T23:05:10.917Z,29.40
2022-12-08T23:07:38.947Z,29.83
2022-12-08T23:10:08.739Z,29.67
2022-12-08T23:12:37.090Z,29.93
2022-12-08T23:15:07.238Z,29.83
2022-12-08T23:17:35.598Z,30.87
2022-12-08T23:20:03.497Z,30.67
2022-12-08T23:22:31.385Z,29.47
2022-12-08T23:24:58.996Z,30.07
2022-12-08T23:27:26.677Z,30.30
2022-12-08T23:29:54.203Z,28.53
2022-12-08T23:32:23.068Z,30.60
2022-12-08T23:34:50.767Z,30.07
2022-12-08T23:37:18.392Z,29.07
2022-12-08T23:39:46.013Z,29.30
2022-12-08T23:42:13.451Z,29.87
2022-12-08T23:44:41.456Z,31.63
2022-12-08T23:47:09.142Z,27.63
2022-12-08T23:49:38.011Z,28.53
2022-12-08T23:52:05.927Z,30.07
2022-12-08T23:54:33.737Z,27.80
2022-12-08T23:57:01.170Z,28.63
2022-12-08T23:59:28.574Z,28.27
